createdAt,value
2019-04-27T00:01:35.798Z,32.80
2019-04-27T00:05:05.022Z,33.03
2019-04-27T00:08:19.270Z,28.93
2019-04-27T00:11:31.002Z,34.80
2019-04-27T00:14:35.586Z,30.57
2019-04-27T00:17:58.281Z,26.03
2019-04-27T00:21:18.960Z,32.93
2019-04-27T00:24:23.576Z,25.07
2019-04-27T00:27:27.921Z,30.40
2019-04-27T00:30:33.387Z,31.20
2019-04-27T00:33:38.643Z,30.30
2019-04-27T00:36:51.047Z,31.97
2019-04-27T00:40:08.380Z,31.33
2019-04-27T00:43:14.054Z,26.87
2019-04-27T00:46:18.413Z,35.20
2019-04-27T00:49:23.891Z,27.00
2019-04-27T00:52:28.267Z,29.43
2019-04-27T00:55:34.443Z,34.43
2019-04-27T00:58:45.469Z,23.37
2019-04-27T01:02:14.731Z,29.10
2019-04-27T01:05:23.803Z,25.60
2019-04-27T01:08:28.291Z,24.47
2019-04-27T01:11:33.330Z,27.77
2019-04-27T01:14:37.799Z,27.00
2019-04-27T01:17:42.364Z,36.47
2019-04-27T01:20:46.659Z,29.67
2019-04-27T01:23:50.958Z,27.10
2019-04-27T01:27:32.566Z,29.03
2019-04-27T01:30:41.855Z,29.37
2019-04-27T01:33:46.106Z,31.97
2019-04-27T01:36:50.388Z,28.73
2019-04-27T01:39:54.891Z,34.30
2019-04-27T01:42:59.130Z,30.37
2019-04-27T01:46:03.510Z,28.60
2019-04-27T01:49:09.198Z,28.67
2019-04-27T01:52:13.527Z,29.60
2019-04-27T01:55:18.846Z,27.23
2019-04-27T01:58:23.374Z,24.30
2019-04-27T02:01:41.815Z,31.90
2019-04-27T02:05:05.102Z,31.60
2019-04-27T02:08:09.551Z,22.53
2019-04-27T02:11:14.071Z,30.53
2019-04-27T02:14:19.611Z,33.10
2019-04-27T02:17:24.039Z,31.10
2019-04-27T02:20:29.963Z,33.80
2019-04-27T02:23:34.518Z,34.70
2019-04-27T02:26:39.858Z,30.60
2019-04-27T02:30:04.967Z,27.03
2019-04-27T02:33:30.328Z,23.93
2019-04-27T02:36:34.755Z,25.73
2019-04-27T02:39:39.902Z,23.47
2019-04-27T02:42:46.113Z,27.10
2019-04-27T02:45:50.447Z,22.23
2019-04-27T02:49:00.070Z,19.07
2019-04-27T02:52:09.522Z,20.67
2019-04-27T02:55:13.945Z,18.17
2019-04-27T02:58:21.496Z,18.90
2019-04-27T03:01:26.703Z,21.70
2019-04-27T03:04:31.069Z,23.90
2019-04-27T03:07:35.357Z,18.37
2019-04-27T03:10:40.225Z,14.37
2019-04-27T03:14:03.690Z,10.73
2019-04-27T03:17:16.405Z,18.77
2019-04-27T03:20:31.922Z,18.20
2019-04-27T03:23:36.281Z,13.17
2019-04-27T03:26:45.195Z,17.10
2019-04-27T03:29:49.957Z,15.20
2019-04-27T03:32:56.642Z,12.50
2019-04-27T03:36:02.534Z,13.90
2019-04-27T03:39:10.166Z,9.63
2019-04-27T03:42:15.460Z,8.60
2019-04-27T03:45:20.171Z,12.97
2019-04-27T03:48:24.699Z,16.37
2019-04-27T03:51:40.031Z,15.43
2019-04-27T03:54:46.419Z,10.63
2019-04-27T03:58:00.406Z,12.30
2019-04-27T04:01:05.469Z,11.77
2019-04-27T04:04:10.593Z,17.80
2019-04-27T04:07:16.314Z,12.67
2019-04-27T04:10:20.660Z,12.27
2019-04-27T04:13:39.705Z,15.53
2019-04-27T04:16:53.868Z,13.60
2019-04-27T04:20:01.658Z,18.27
2019-04-27T04:23:06.215Z,15.50
2019-04-27T04:26:10.608Z,12.33
2019-04-27T04:29:14.853Z,17.87
2019-04-27T04:32:19.472Z,15.37
2019-04-27T04:35:26.344Z,10.03
2019-04-27T04:38:30.786Z,11.00
2019-04-27T04:41:43.629Z,14.37
2019-04-27T04:44:56.832Z,16.37
2019-04-27T04:48:04.196Z,13.37
2019-04-27T04:51:10.146Z,12.77
2019-04-27T04:54:14.320Z,16.87
2019-04-27T04:57:21.572Z,14.80
2019-04-27T05:00:24.614Z,14.67
2019-04-27T05:03:28.939Z,15.53
2019-04-27T05:06:33.184Z,16.43
2019-04-27T05:09:37.530Z,16.40
2019-04-27T05:12:41.787Z,16.97
2019-04-27T05:15:46.158Z,22.77
2019-04-27T05:18:50.414Z,15.27
2019-04-27T05:21:54.701Z,17.27
2019-04-27T05:25:01.673Z,14.90
2019-04-27T05:28:06.039Z,19.10
2019-04-27T05:31:10.399Z,17.07
2019-04-27T05:34:14.746Z,14.10
2019-04-27T05:37:27.571Z,17.33
2019-04-27T05:40:25.074Z,20.63
2019-04-27T05:43:36.193Z,25.20
2019-04-27T05:47:05.404Z,22.77
2019-04-27T05:50:13.389Z,21.13
2019-04-27T05:53:18.941Z,21.13
2019-04-27T05:56:23.377Z,23.37
2019-04-27T05:59:46.126Z,24.53
2019-04-27T06:02:50.502Z,27.47
2019-04-27T06:05:54.851Z,27.97
2019-04-27T06:08:59.503Z,28.10
2019-04-27T06:12:03.929Z,30.07
2019-04-27T06:15:09.734Z,26.90
2019-04-27T06:18:14.293Z,26.83
2019-04-27T06:21:19.631Z,29.97
2019-04-27T06:24:24.086Z,23.73
2019-04-27T06:27:30.542Z,27.03
2019-04-27T06:30:34.481Z,26.97
2019-04-27T06:33:40.334Z,27.67
2019-04-27T06:36:44.647Z,29.80
2019-04-27T06:39:49.502Z,25.80
2019-04-27T06:42:54.166Z,24.83
2019-04-27T06:46:01.446Z,23.57
2019-04-27T06:49:05.752Z,24.93
2019-04-27T06:52:10.094Z,26.13
2019-04-27T06:55:14.905Z,22.33
2019-04-27T06:58:20.007Z,23.50
2019-04-27T07:01:24.674Z,20.83
2019-04-27T07:04:29.420Z,19.13
2019-04-27T07:07:34.339Z,21.13
2019-04-27T07:10:39.251Z,20.23
2019-04-27T07:13:43.562Z,22.50
2019-04-27T07:16:48.786Z,19.67
2019-04-27T07:19:57.030Z,18.53
2019-04-27T07:23:01.294Z,21.20
2019-04-27T07:26:05.677Z,18.17
2019-04-27T07:29:10.163Z,21.10
2019-04-27T07:32:14.543Z,17.10
2019-04-27T07:35:19.661Z,18.97
2019-04-27T07:38:24.302Z,19.80
2019-04-27T07:41:29.153Z,16.67
2019-04-27T07:44:55.959Z,17.43
2019-04-27T07:48:00.315Z,17.23
2019-04-27T07:51:04.598Z,18.80
2019-04-27T07:54:09.054Z,17.53
2019-04-27T07:57:14.953Z,15.70
2019-04-27T08:00:19.500Z,15.43
2019-04-27T08:03:23.808Z,14.73
2019-04-27T08:06:29.032Z,15.10
2019-04-27T08:09:33.478Z,16.00
2019-04-27T08:12:38.882Z,14.27
2019-04-27T08:15:43.280Z,12.73
2019-04-27T08:18:49.293Z,10.47
2019-04-27T08:21:53.485Z,13.33
2019-04-27T08:24:59.316Z,12.93
2019-04-27T08:28:26.247Z,12.23
2019-04-27T08:31:38.680Z,12.33
2019-04-27T08:34:42.939Z,11.43
2019-04-27T08:37:47.272Z,11.50
2019-04-27T08:40:51.674Z,11.40
2019-04-27T08:43:55.939Z,11.67
2019-04-27T08:47:00.315Z,10.40
2019-04-27T08:50:04.778Z,9.20
2019-04-27T08:53:09.860Z,9.20
2019-04-27T08:56:14.310Z,14.97
2019-04-27T08:59:19.451Z,9.57
2019-04-27T09:02:23.874Z,9.07
2019-04-27T09:05:28.903Z,9.07
2019-04-27T09:08:45.386Z,9.70
2019-04-27T09:12:01.658Z,10.23
2019-04-27T09:15:19.247Z,8.47
2019-04-27T09:18:25.734Z,9.43
2019-04-27T09:21:49.026Z,10.30
2019-04-27T09:24:53.578Z,11.67
2019-04-27T09:27:59.590Z,14.57
2019-04-27T09:31:03.826Z,10.27
2019-04-27T09:34:08.177Z,8.10
2019-04-27T09:37:12.532Z,9.80
2019-04-27T09:40:17.178Z,13.17
2019-04-27T09:43:21.681Z,10.30
2019-04-27T09:46:26.090Z,13.10
2019-04-27T09:49:32.698Z,12.70
2019-04-27T09:52:36.976Z,13.80
2019-04-27T09:55:41.378Z,11.23
2019-04-27T09:58:47.124Z,12.50
2019-04-27T10:01:51.487Z,10.97
2019-04-27T10:04:56.556Z,14.13
2019-04-27T10:08:00.970Z,14.57
2019-04-27T10:11:05.957Z,12.73
2019-04-27T10:14:10.455Z,12.17
2019-04-27T10:17:14.806Z,13.03
2019-04-27T10:20:19.980Z,15.13
2019-04-27T10:23:24.408Z,12.53
2019-04-27T10:26:28.726Z,13.80
2019-04-27T10:29:33.089Z,12.97
2019-04-27T10:32:37.476Z,11.17
2019-04-27T10:35:41.735Z,18.60
2019-04-27T10:38:46.004Z,11.60
2019-04-27T10:41:50.221Z,12.90
2019-04-27T10:44:56.014Z,11.63
2019-04-27T10:48:00.391Z,10.40
2019-04-27T10:51:07.060Z,12.27
2019-04-27T10:54:10.790Z,12.40
2019-04-27T10:57:15.821Z,9.80
2019-04-27T11:00:27.624Z,11.80
2019-04-27T14:27:46.254Z,23.77
2019-04-27T14:30:50.611Z,24.57
2019-04-27T14:33:55.046Z,23.30
2019-04-27T14:36:59.500Z,25.17
2019-04-27T14:40:04.144Z,23.93
2019-04-27T14:43:08.636Z,21.73
2019-04-27T14:46:13.164Z,24.40
2019-04-27T14:49:18.238Z,25.70
2019-04-27T14:52:23.852Z,25.33
2019-04-27T14:55:29.964Z,25.43
2019-04-27T14:58:34.589Z,27.20
2019-04-27T15:01:40.065Z,27.37
2019-04-27T15:04:45.549Z,26.70
2019-04-27T15:07:50.970Z,28.63
2019-04-27T15:10:55.740Z,26.70
2019-04-27T15:14:02.072Z,25.63
2019-04-27T15:17:06.816Z,24.77
2019-04-27T15:20:16.418Z,26.13
2019-04-27T15:23:20.900Z,27.00
2019-04-27T15:26:25.143Z,29.90
2019-04-27T15:29:31.134Z,27.20
2019-04-27T15:32:55.055Z,27.33
2019-04-27T15:36:07.610Z,26.97
2019-04-27T15:39:18.334Z,25.40
2019-04-27T15:42:51.178Z,26.20
2019-04-27T15:45:49.416Z,25.60
2019-04-27T15:48:54.391Z,27.17
2019-04-27T15:52:00.156Z,25.23
2019-04-27T15:55:11.126Z,22.10
2019-04-27T15:58:12.200Z,26.97
2019-04-27T16:01:18.060Z,25.90
2019-04-27T16:04:23.162Z,27.80
2019-04-27T16:07:32.029Z,27.07
2019-04-27T16:10:37.381Z,26.00
2019-04-27T16:13:41.517Z,23.53
2019-04-27T16:16:46.508Z,23.70
2019-04-27T16:19:54.957Z,25.10
2019-04-27T16:23:03.099Z,18.70
2019-04-27T16:26:11.336Z,18.90
2019-04-27T16:29:13.629Z,19.97
2019-04-27T16:32:18.598Z,15.10
2019-04-27T16:35:23.598Z,18.57
2019-04-27T16:38:36.465Z,18.00
2019-04-27T16:41:42.091Z,16.43
2019-04-27T16:44:49.458Z,16.40
2019-04-27T16:47:56.678Z,13.50
2019-04-27T16:51:00.859Z,15.40
2019-04-27T16:54:05.535Z,13.00
2019-04-27T16:57:10.362Z,13.97
2019-04-27T17:00:18.277Z,13.97
2019-04-27T17:03:22.818Z,13.33
2019-04-27T17:06:29.541Z,12.40
2019-04-27T17:09:36.385Z,11.87
2019-04-27T17:12:45.274Z,11.17
2019-04-27T17:16:01.968Z,9.83
2019-04-27T17:19:14.628Z,12.20
2019-04-27T17:22:20.211Z,12.80
2019-04-27T17:25:24.823Z,11.37
2019-04-27T17:28:40.595Z,12.53
2019-04-27T17:31:50.572Z,14.53
2019-04-27T17:34:55.632Z,13.53
2019-04-27T17:38:03.682Z,12.13
2019-04-27T17:41:11.084Z,10.60
2019-04-27T17:44:12.781Z,10.90
2019-04-27T17:47:20.079Z,10.67
2019-04-27T17:50:25.406Z,10.80
2019-04-27T17:53:33.101Z,10.10
2019-04-27T17:56:48.255Z,11.10
2019-04-27T17:59:44.377Z,12.63
2019-04-27T18:02:50.490Z,8.33
2019-04-27T18:05:54.819Z,13.23
2019-04-27T18:09:03.309Z,11.30
2019-04-27T18:12:09.683Z,8.90
2019-04-27T18:15:22.708Z,10.70
2019-04-27T18:18:37.962Z,11.00
2019-04-27T18:22:04.059Z,8.37
2019-04-27T18:25:09.966Z,10.17
2019-04-27T18:28:20.728Z,11.20
2019-04-27T18:31:25.111Z,9.67
2019-04-27T18:34:29.393Z,10.03
2019-04-27T18:37:35.911Z,12.17
2019-04-27T18:40:40.275Z,11.00
2019-04-27T18:43:50.589Z,11.70
2019-04-27T18:46:53.668Z,12.57
2019-04-27T18:50:11.004Z,10.13
2019-04-27T18:53:23.233Z,10.47
2019-04-27T18:56:24.745Z,9.90
2019-04-27T18:59:29.107Z,11.40
2019-04-27T19:02:34.419Z,11.70
2019-04-27T19:05:40.471Z,11.77
2019-04-27T19:08:45.666Z,12.87
2019-04-27T19:11:56.247Z,12.07
2019-04-27T19:14:56.620Z,11.93
2019-04-27T19:18:00.964Z,14.27
2019-04-27T19:21:05.301Z,12.47
2019-04-27T19:24:09.651Z,14.50
2019-04-27T19:27:24.819Z,12.87
2019-04-27T19:30:33.539Z,17.87
2019-04-27T19:33:39.623Z,18.23
2019-04-27T19:36:44.170Z,21.00
2019-04-27T19:39:49.861Z,18.60
2019-04-27T19:42:54.465Z,20.77
2019-04-27T19:45:58.734Z,20.77
2019-04-27T19:49:03.130Z,17.30
2019-04-27T19:52:08.663Z,17.37
2019-04-27T19:55:13.415Z,17.30
2019-04-27T19:58:19.780Z,16.60
2019-04-27T20:01:38.297Z,18.27
2019-04-27T20:04:46.344Z,19.93
2019-04-27T20:07:50.617Z,19.83
2019-04-27T20:10:55.030Z,17.20
2019-04-27T20:14:00.776Z,18.53
2019-04-27T20:17:05.479Z,18.50
2019-04-27T20:20:09.957Z,19.40
2019-04-27T20:23:14.321Z,20.70
2019-04-27T20:26:18.592Z,21.53
2019-04-27T20:29:22.901Z,21.27
2019-04-27T20:32:27.181Z,22.33
2019-04-27T20:35:31.547Z,21.87
2019-04-27T20:38:37.157Z,21.47
2019-04-27T20:41:41.523Z,21.80
2019-04-27T20:44:45.852Z,24.47
2019-04-27T20:47:52.454Z,29.37
2019-04-27T20:50:56.201Z,24.43
2019-04-27T20:54:01.768Z,28.07
2019-04-27T20:57:06.468Z,27.47
2019-04-27T21:00:11.911Z,27.23
2019-04-27T21:03:44.209Z,27.60
2019-04-27T21:06:52.478Z,29.57
2019-04-27T21:09:56.853Z,29.33
2019-04-27T21:13:02.963Z,31.70
2019-04-27T21:16:07.327Z,32.30
2019-04-27T21:19:11.760Z,36.67
2019-04-27T21:22:19.111Z,34.47
2019-04-27T21:25:29.186Z,36.87
2019-04-27T21:28:34.887Z,41.63
2019-04-27T21:31:39.276Z,41.93
2019-04-27T21:34:43.634Z,50.70
2019-04-27T21:37:48.151Z,50.20
2019-04-27T21:40:52.504Z,53.17
2019-04-27T21:43:56.807Z,48.97
2019-04-27T21:47:01.148Z,50.40
2019-04-27T21:50:05.782Z,51.93
2019-04-27T21:53:21.157Z,51.80
2019-04-27T21:56:25.537Z,51.70
2019-04-27T21:59:30.071Z,55.23
2019-04-27T22:02:35.028Z,52.00
2019-04-27T22:05:41.499Z,51.63
2019-04-27T22:08:45.534Z,46.47
2019-04-27T22:11:51.088Z,48.40
2019-04-27T22:14:55.524Z,51.33
2019-04-27T22:18:00.684Z,47.83
2019-04-27T22:21:06.340Z,47.80
2019-04-27T22:24:19.158Z,45.80
2019-04-27T22:27:23.880Z,42.67
2019-04-27T22:30:28.231Z,44.53
2019-04-27T22:33:32.534Z,48.60
2019-04-27T22:36:36.882Z,44.80
2019-04-27T22:40:01.037Z,43.17
2019-04-27T22:43:24.450Z,42.67
2019-04-27T22:46:30.806Z,47.63
2019-04-27T22:49:35.292Z,43.70
2019-04-27T22:52:41.073Z,39.27
2019-04-27T22:56:03.330Z,40.13
2019-04-27T22:59:14.544Z,45.30
2019-04-27T23:02:24.887Z,39.40
2019-04-27T23:05:29.378Z,40.60
2019-04-27T23:08:33.640Z,38.83
2019-04-27T23:11:37.979Z,37.97
2019-04-27T23:14:42.534Z,37.43
2019-04-27T23:18:04.033Z,44.80
2019-04-27T23:21:08.387Z,40.63
2019-04-27T23:24:12.691Z,39.67
2019-04-27T23:27:16.965Z,39.50
2019-04-27T23:30:23.475Z,42.67
2019-04-27T23:33:27.819Z,37.30
2019-04-27T23:36:32.118Z,37.47
2019-04-27T23:39:36.359Z,37.60
2019-04-27T23:42:41.625Z,41.20
2019-04-27T23:45:46.076Z,38.10
2019-04-27T23:48:52.031Z,39.23
2019-04-27T23:52:15.322Z,35.77
2019-04-27T23:55:20.851Z,39.53
2019-04-27T23:58:25.490Z,39.07
